Airfield :
LOGIN :

Register | Disclaimer

   EN    FR    IT 

 










Legend :    VFR   Marginal VFR   IFR   Intensive IFR   Very Intensive IFR
Visi :
Ceiling :
>= 8 km
>= 3000ft
5 to 8 km
1000 to 3000 ft
1500m to 5 km
500 to 1000 ft
800 to 1500m
200 to 500 ft
< 800m
< 200 ft
Symbols :   Thunderstorms  Fog  Heavy snow  Heavy precipitations  Wind > 20 kt
SIGMETs :     Misc.  Thunderstorms  Icing  Turbulence  Mountain Waves  Volcanic Ashes






- Airport Elevation : 287 ft


LFRL - Lanveoc Poulmic

CURRENT METAR :
  • 240430Z AUTO 26004KT CAVOK 11/09 Q1006

EXPIRED METARs :
  • 240400Z AUTO 27003KT CAVOK 10/08 Q1006
  • 240330Z AUTO 28003KT CAVOK 09/07 Q1006
  • 240300Z AUTO 27003KT CAVOK 09/07 Q1006
  • 240230Z AUTO 30004KT CAVOK 10/08 Q1006
  • 240200Z AUTO 30005KT 9999 FEW015 SCT110 OVC130 11/09 Q1006

TAF AMD TAF LFRL
Valid from the 23 at 14:00 until the 24 at 12:00 UTC


231456Z 2314/2412 02010KT 9999 BKN010 OVC015
TEMPO 2314/2321 2000 RADZ BKN004 OVC008
BECMG 2320/2322 30005KT SCT015
BECMG 2402/2404 VRB03KT OVC012
TEMPO 2404/2408 3000 RA OVC008
BECMG 2407/2409 24010KT NSW SCT020



MET'MAP, your aeronautical weather chart ! - Copyright ORBIFLY December 2007 - Disclaimer

ORBIFLY MET'MAP TEAM :

Programming & Development : Alexandra Zaïnal
Concept & Development : Baudouin d'Aumeries
Co-Development & Prog : Marc-Olivier Méhu
Technical & hardware support : Manuel Goepfert

Contact : metmap@orbifly.com




SOURCES & CREDITS :

   NOAA